Time;durP1;ratioP1;P1;durP2;ratioP2;P2;SDS_P1;SDS_P2;PMS_P1;PMS_P2;Temp;Humidity;BMP_temperature;BMP_pressure;BME280_temperature;BME280_humidity;BME280_pressure;Samples;Min_cycle;Max_cycle;Signal;HPM_P1;HPM_P2
2021/10/11 00:01:47;;;;;;;24.05;16.90;;;6.80;99.90;;;;;;5058105;28;20207;-88
2021/10/11 00:04:14;;;;;;;29.35;17.50;;;6.80;99.90;;;;;;5058889;28;20580;-88
2021/10/11 00:06:41;;;;;;;28.10;17.48;;;6.00;99.90;;;;;;5059227;28;20783;-88
2021/10/11 00:09:29;;;;;;;25.40;17.17;;;6.60;99.90;;;;;;5071955;28;20234;-90
2021/10/11 00:11:55;;;;;;;28.80;16.35;;;6.60;99.90;;;;;;5042823;28;20253;-88
2021/10/11 00:14:22;;;;;;;23.23;15.10;;;6.50;99.90;;;;;;5057437;28;20682;-87
2021/10/11 00:16:50;;;;;;;21.48;16.50;;;6.40;99.90;;;;;;5058003;28;20527;-87
2021/10/11 00:19:17;;;;;;;17.80;14.57;;;6.40;99.90;;;;;;5066126;28;20211;-88
2021/10/11 00:21:44;;;;;;;24.20;14.60;;;;;;;;;;5061381;28;20192;-88
2021/10/11 00:24:11;;;;;;;19.33;14.85;;;6.20;99.90;;;;;;5061472;28;20223;-87
2021/10/11 00:26:37;;;;;;;28.75;14.88;;;6.10;99.90;;;;;;5062866;28;20223;-88
2021/10/11 00:29:04;;;;;;;25.83;15.50;;;6.20;99.90;;;;;;5062796;28;20744;-87
2021/10/11 00:31:31;;;;;;;17.67;13.23;;;8.10;99.90;;;;;;5057758;28;20204;-88
2021/10/11 00:33:59;;;;;;;22.00;16.05;;;6.10;99.90;;;;;;5056930;28;20707;-88
2021/10/11 00:36:26;;;;;;;22.25;17.17;;;6.10;99.90;;;;;;5058472;28;20223;-88
2021/10/11 00:38:53;;;;;;;24.27;15.23;;;6.00;99.90;;;;;;5058814;28;20211;-87
2021/10/11 00:41:19;;;;;;;21.55;15.85;;;6.00;99.90;;;;;;5058689;28;20680;-87
2021/10/11 00:43:47;;;;;;;22.40;14.70;;;6.00;99.90;;;;;;5058443;28;20250;-88
2021/10/11 00:46:14;;;;;;;27.02;14.80;;;6.10;99.90;;;;;;5057749;28;20625;-87
2021/10/11 00:48:40;;;;;;;25.63;16.33;;;6.20;99.90;;;;;;5057221;28;20229;-87
2021/10/11 00:51:09;;;;;;;25.02;16.85;;;6.10;99.90;;;;;;5057606;28;20618;-87
2021/10/11 00:53:36;;;;;;;18.98;14.57;;;6.30;99.90;;;;;;5056121;28;20253;-88
2021/10/11 00:56:03;;;;;;;21.60;14.77;;;6.20;99.90;;;;;;5058664;28;20223;-87
2021/10/11 00:58:30;;;;;;;21.88;15.07;;;6.10;99.90;;;;;;5058461;28;20199;-88
2021/10/11 01:00:56;;;;;;;19.10;14.68;;;6.30;99.90;;;;;;5056632;28;20212;-89
2021/10/11 01:03:23;;;;;;;19.95;14.65;;;6.20;99.90;;;;;;5059825;28;20226;-87
2021/10/11 01:05:50;;;;;;;20.73;14.85;;;6.00;99.90;;;;;;5062671;28;20223;-90
2021/10/11 01:08:18;;;;;;;21.88;14.20;;;6.10;99.90;;;;;;5060084;28;20207;-88
2021/10/11 01:10:47;;;;;;;20.88;14.57;;;5.90;99.90;;;;;;5057924;28;20571;-89
2021/10/11 01:13:14;;;;;;;16.67;14.85;;;;;;;;;;5057422;28;20674;-89
2021/10/11 01:15:40;;;;;;;21.23;13.70;;;6.00;99.90;;;;;;5056382;28;20219;-89
2021/10/11 01:18:07;;;;;;;18.77;13.82;;;5.70;99.90;;;;;;5056150;28;20234;-88
2021/10/11 01:20:35;;;;;;;22.60;15.55;;;6.10;99.90;;;;;;5056538;28;20204;-89
2021/10/11 01:23:02;;;;;;;19.63;13.10;;;6.10;99.90;;;;;;5057341;28;20208;-88
2021/10/11 01:25:29;;;;;;;19.08;14.90;;;6.10;99.90;;;;;;5056941;28;20326;-88
2021/10/11 01:27:56;;;;;;;18.05;14.73;;;6.10;99.90;;;;;;5056326;28;20215;-89
2021/10/11 01:30:22;;;;;;;22.38;15.00;;;5.70;99.90;;;;;;5057146;28;20226;-88
2021/10/11 01:32:49;;;;;;;21.20;14.30;;;5.80;99.90;;;;;;5071450;28;20213;-88
2021/10/11 01:35:17;;;;;;;25.67;15.60;;;6.00;99.90;;;;;;5080083;28;20223;-88
2021/10/11 01:37:47;;;;;;;21.60;14.88;;;5.90;99.90;;;;;;5079763;28;20199;-88
2021/10/11 01:40:15;;;;;;;20.13;14.35;;;5.90;99.90;;;;;;5063169;28;20286;-88
2021/10/11 01:42:42;;;;;;;17.45;14.70;;;5.90;99.90;;;;;;5060386;28;20207;-88
2021/10/11 01:45:10;;;;;;;24.95;15.38;;;5.90;99.90;;;;;;5060345;28;20235;-89
2021/10/11 01:47:37;;;;;;;18.52;13.70;;;;;;;;;;5060164;28;20237;-88
2021/10/11 01:50:06;;;;;;;21.08;16.23;;;6.00;99.90;;;;;;5060267;28;20578;-88
2021/10/11 01:52:35;;;;;;;18.23;14.43;;;6.10;99.90;;;;;;5065028;28;20199;-89
2021/10/11 01:55:04;;;;;;;18.65;14.05;;;5.90;99.90;;;;;;5090352;22;20223;-87
2021/10/11 01:57:31;;;;;;;21.30;13.52;;;5.80;99.90;;;;;;5073990;28;20190;-87
2021/10/11 01:59:57;;;;;;;20.00;14.25;;;5.80;99.90;;;;;;5078685;28;20250;-85
2021/10/11 02:02:24;;;;;;;18.55;14.10;;;5.70;99.90;;;;;;5077304;28;20208;-87
2021/10/11 02:04:50;;;;;;;18.80;13.32;;;5.60;99.90;;;;;;5081260;28;20219;-85
2021/10/11 02:07:17;;;;;;;19.88;14.13;;;5.60;99.90;;;;;;5081508;28;20202;-87
2021/10/11 02:09:44;;;;;;;26.67;16.35;;;5.70;99.90;;;;;;5081527;28;20263;-86
2021/10/11 02:12:12;;;;;;;18.65;13.82;;;5.70;99.90;;;;;;5080463;28;20206;-86
2021/10/11 02:14:38;;;;;;;20.88;14.48;;;5.90;99.90;;;;;;5080972;28;20188;-86
2021/10/11 02:17:05;;;;;;;30.33;14.68;;;6.00;99.90;;;;;;5081409;28;20191;-85
2021/10/11 02:19:31;;;;;;;22.92;14.50;;;6.10;99.90;;;;;;5081632;28;20172;-86
2021/10/11 02:21:58;;;;;;;17.75;14.23;;;6.10;99.90;;;;;;5081504;28;20221;-87
2021/10/11 02:24:25;;;;;;;21.80;13.75;;;6.10;99.90;;;;;;5081220;28;20230;-87
2021/10/11 02:26:52;;;;;;;20.15;15.13;;;5.90;99.90;;;;;;5081079;28;20203;-86
2021/10/11 02:29:20;;;;;;;19.10;14.70;;;5.90;99.90;;;;;;5066784;28;20237;-86
2021/10/11 02:31:46;;;;;;;19.45;14.10;;;5.80;99.90;;;;;;5064996;28;20237;-87
2021/10/11 02:34:13;;;;;;;19.05;12.65;;;5.80;99.90;;;;;;5064572;28;20200;-87
2021/10/11 02:36:40;;;;;;;22.67;14.55;;;5.80;99.90;;;;;;5062394;28;20792;-87
2021/10/11 02:39:06;;;;;;;19.25;13.77;;;5.80;99.90;;;;;;5062588;28;20273;-86
2021/10/11 02:41:33;;;;;;;18.73;15.38;;;5.70;99.90;;;;;;5063268;28;20204;-86
2021/10/11 02:44:00;;;;;;;21.33;14.40;;;5.90;99.90;;;;;;5061313;28;20577;-86
2021/10/11 02:46:28;;;;;;;20.67;15.13;;;6.10;99.90;;;;;;5065630;28;20647;-85
2021/10/11 02:48:54;;;;;;;20.02;14.65;;;5.70;99.90;;;;;;5060061;28;20620;-85
2021/10/11 02:51:21;;;;;;;19.17;14.60;;;5.70;99.90;;;;;;5061473;28;20254;-87
2021/10/11 02:53:49;;;;;;;27.60;15.55;;;5.70;99.90;;;;;;5062150;28;20215;-88
2021/10/11 02:56:16;;;;;;;21.48;15.52;;;5.80;99.90;;;;;;5062208;28;20439;-87
2021/10/11 02:58:43;;;;;;;18.20;13.90;;;5.70;99.90;;;;;;5062959;28;20239;-88
2021/10/11 03:01:10;;;;;;;16.35;14.13;;;5.70;99.90;;;;;;5064282;28;20283;-86
2021/10/11 03:03:38;;;;;;;19.80;14.50;;;5.80;99.90;;;;;;5078543;28;20203;-85
2021/10/11 03:06:05;;;;;;;18.58;15.30;;;5.90;99.90;;;;;;5077976;28;20231;-86
2021/10/11 03:08:32;;;;;;;21.58;15.15;;;5.90;99.90;;;;;;5074945;28;20203;-86
2021/10/11 03:10:59;;;;;;;21.10;14.63;;;5.80;99.90;;;;;;5062337;28;20203;-86
2021/10/11 03:13:25;;;;;;;20.52;14.25;;;5.90;99.90;;;;;;5062751;28;20613;-87
2021/10/11 03:15:52;;;;;;;19.02;14.05;;;5.90;99.90;;;;;;5061463;28;20435;-87
2021/10/11 03:18:19;;;;;;;21.73;15.43;;;5.90;99.90;;;;;;5061243;28;20466;-88
2021/10/11 03:20:47;;;;;;;19.35;14.07;;;5.90;99.90;;;;;;5062662;28;20207;-87
2021/10/11 03:23:14;;;;;;;21.83;14.90;;;5.80;99.90;;;;;;5063050;28;20210;-86
2021/10/11 03:25:40;;;;;;;23.10;16.90;;;5.80;99.90;;;;;;5063062;28;20234;-86
2021/10/11 03:28:07;;;;;;;21.83;14.73;;;5.80;99.90;;;;;;5062138;28;20269;-85
2021/10/11 03:30:34;;;;;;;19.40;14.43;;;5.70;99.90;;;;;;5060527;28;20461;-88
2021/10/11 03:33:00;;;;;;;21.30;14.57;;;5.80;99.90;;;;;;5070174;28;20480;-86
2021/10/11 03:35:27;;;;;;;21.20;15.43;;;5.70;99.90;;;;;;5075729;28;20228;-85
2021/10/11 03:37:55;;;;;;;21.85;14.68;;;5.90;99.90;;;;;;5074762;28;20226;-85
2021/10/11 03:40:22;;;;;;;22.73;16.00;;;5.90;99.90;;;;;;5077627;28;20210;-85
2021/10/11 03:42:48;;;;;;;18.20;14.13;;;5.90;99.90;;;;;;5077799;28;20203;-85
2021/10/11 03:45:15;;;;;;;19.20;14.00;;;5.70;99.90;;;;;;5067074;28;20215;-87
2021/10/11 03:47:41;;;;;;;19.35;15.13;;;5.80;99.90;;;;;;5062100;28;20204;-88
2021/10/11 03:50:09;;;;;;;20.02;14.43;;;5.80;99.90;;;;;;5061402;28;20681;-88
2021/10/11 03:52:36;;;;;;;33.83;21.30;;;5.80;99.90;;;;;;5061730;28;20207;-87
2021/10/11 03:55:05;;;;;;;19.50;15.25;;;5.80;99.90;;;;;;5061196;28;20231;-87
2021/10/11 03:57:32;;;;;;;19.58;15.02;;;5.90;99.90;;;;;;5060999;28;20436;-88
2021/10/11 03:59:58;;;;;;;19.65;15.13;;;6.00;99.90;;;;;;5060589;28;20211;-85
2021/10/11 04:02:26;;;;;;;23.92;14.65;;;6.10;99.90;;;;;;5061633;28;20200;-87
2021/10/11 04:04:52;;;;;;;20.40;14.68;;;5.90;99.90;;;;;;5074729;28;20259;-86
2021/10/11 04:07:20;;;;;;;25.75;15.05;;;6.10;99.90;;;;;;5077274;28;20199;-83
2021/10/11 04:09:48;;;;;;;24.13;15.18;;;6.20;99.90;;;;;;5075156;28;20203;-88
2021/10/11 04:12:20;;;;;;;19.40;14.23;;;6.10;99.90;;;;;;5076060;28;20184;-84
2021/10/11 04:14:47;;;;;;;21.73;14.65;;;6.50;99.90;;;;;;5077081;28;20207;-85
2021/10/11 04:17:14;;;;;;;28.13;15.88;;;6.30;99.90;;;;;;5077884;28;20188;-84
2021/10/11 04:19:41;;;;;;;20.45;14.57;;;6.30;99.90;;;;;;5077205;28;20198;-86
2021/10/11 04:22:08;;;;;;;21.55;14.10;;;6.30;99.90;;;;;;5077011;28;20208;-86
2021/10/11 04:24:34;;;;;;;18.55;14.55;;;6.40;99.90;;;;;;5067082;28;20204;-88
2021/10/11 04:27:01;;;;;;;21.02;13.85;;;6.30;99.90;;;;;;5061028;28;20678;-86
2021/10/11 04:29:29;;;;;;;16.48;13.30;;;6.30;99.90;;;;;;5061361;28;20208;-87
2021/10/11 04:31:55;;;;;;;20.10;14.55;;;6.30;99.90;;;;;;5061064;28;20261;-86
2021/10/11 04:34:22;;;;;;;18.77;14.27;;;6.30;99.90;;;;;;5061080;28;20226;-86
2021/10/11 04:36:49;;;;;;;22.55;15.73;;;6.30;99.90;;;;;;5071777;28;20216;-86
2021/10/11 04:39:16;;;;;;;19.42;13.70;;;6.30;99.90;;;;;;5079089;28;20183;-86
2021/10/11 04:41:42;;;;;;;17.63;14.45;;;6.50;99.90;;;;;;5079109;28;20179;-87
2021/10/11 04:44:09;;;;;;;18.23;13.70;;;6.40;99.90;;;;;;5079037;28;20198;-86
2021/10/11 04:46:37;;;;;;;22.23;15.18;;;6.40;99.90;;;;;;5078578;28;20203;-86
2021/10/11 04:49:04;;;;;;;18.98;14.45;;;6.50;99.90;;;;;;5077958;28;20200;-87
2021/10/11 04:51:30;;;;;;;19.33;14.40;;;6.50;99.90;;;;;;5067624;28;20226;-86
2021/10/11 04:53:57;;;;;;;20.42;14.52;;;6.50;99.90;;;;;;5057840;28;20226;-86
2021/10/11 04:56:24;;;;;;;19.45;14.70;;;6.40;99.90;;;;;;5058744;28;20224;-86
2021/10/11 04:58:50;;;;;;;23.02;15.32;;;6.50;99.90;;;;;;5059626;28;20203;-86
2021/10/11 05:01:20;;;;;;;19.52;14.13;;;6.50;99.90;;;;;;5059368;28;20199;-86
2021/10/11 05:03:48;;;;;;;18.80;14.75;;;6.50;99.90;;;;;;5070243;28;20263;-86
2021/10/11 05:06:14;;;;;;;21.20;15.38;;;6.50;99.90;;;;;;5075592;28;20219;-86
2021/10/11 05:08:42;;;;;;;22.48;14.15;;;6.30;99.90;;;;;;5080350;28;20199;-87
2021/10/11 05:11:10;;;;;;;23.80;15.38;;;6.40;99.90;;;;;;5077702;28;20215;-88
2021/10/11 05:13:36;;;;;;;19.70;14.52;;;6.40;99.90;;;;;;5069987;28;20233;-87
2021/10/11 05:16:04;;;;;;;18.27;14.05;;;6.40;99.90;;;;;;5068778;28;20224;-87
2021/10/11 05:18:30;;;;;;;27.80;15.05;;;6.40;99.90;;;;;;5068338;28;20212;-87
2021/10/11 05:20:58;;;;;;;22.33;14.65;;;6.50;99.90;;;;;;5067661;28;20654;-88
2021/10/11 05:23:25;;;;;;;25.13;14.93;;;6.50;99.90;;;;;;5066315;28;20544;-88
2021/10/11 05:25:52;;;;;;;17.30;13.77;;;6.50;99.90;;;;;;5068881;28;20262;-87
2021/10/11 05:28:18;;;;;;;22.23;15.55;;;6.40;99.90;;;;;;5063885;28;20350;-88
2021/10/11 05:30:45;;;;;;;17.08;13.65;;;6.40;99.90;;;;;;5063981;28;20195;-87
2021/10/11 05:33:12;;;;;;;21.13;15.10;;;6.30;99.90;;;;;;5066735;28;20200;-86
2021/10/11 05:35:39;;;;;;;17.40;13.13;;;6.30;99.90;;;;;;5064325;28;20231;-87
2021/10/11 05:38:07;;;;;;;20.83;13.50;;;6.30;99.90;;;;;;5081164;28;20211;-86
2021/10/11 05:40:35;;;;;;;19.83;14.30;;;6.30;99.90;;;;;;5081446;28;20191;-85
2021/10/11 05:43:02;;;;;;;32.50;14.82;;;6.20;99.90;;;;;;5076250;28;20229;-87
2021/10/11 05:45:29;;;;;;;21.05;15.27;;;6.20;99.90;;;;;;5065059;28;20597;-88
2021/10/11 05:47:55;;;;;;;22.45;14.02;;;6.10;99.90;;;;;;5066156;28;20666;-90
2021/10/11 05:50:22;;;;;;;20.73;14.40;;;6.10;99.90;;;;;;5066372;28;20628;-87
2021/10/11 05:52:48;;;;;;;21.35;14.77;;;6.20;99.90;;;;;;5068553;28;20203;-86
2021/10/11 05:55:17;;;;;;;23.33;14.48;;;6.20;99.90;;;;;;5081426;28;20223;-85
2021/10/11 05:57:46;;;;;;;19.80;14.68;;;6.20;99.90;;;;;;5081239;28;20207;-86
2021/10/11 06:00:14;;;;;;;21.88;15.63;;;6.30;99.90;;;;;;5081257;28;20230;-86
2021/10/11 06:02:41;;;;;;;24.55;14.30;;;6.30;99.90;;;;;;5081427;28;20183;-86
2021/10/11 06:05:08;;;;;;;24.67;14.60;;;6.30;99.90;;;;;;5070801;28;20231;-86
2021/10/11 06:07:35;;;;;;;31.30;16.15;;;6.20;99.90;;;;;;5063661;28;20207;-86
2021/10/11 06:10:01;;;;;;;22.83;15.27;;;6.20;99.90;;;;;;5063393;28;20704;-87
2021/10/11 06:12:29;;;;;;;19.25;13.82;;;6.30;99.90;;;;;;5067605;28;20208;-85
2021/10/11 06:14:56;;;;;;;18.30;12.93;;;6.70;99.90;;;;;;5076515;28;20286;-85
2021/10/11 06:17:23;;;;;;;23.15;14.55;;;6.50;99.90;;;;;;5078117;28;20237;-85
2021/10/11 06:19:49;;;;;;;19.70;14.60;;;6.50;99.90;;;;;;5077168;28;20204;-87
2021/10/11 06:22:16;;;;;;;24.13;15.85;;;6.60;99.90;;;;;;5078000;28;20208;-87
2021/10/11 06:24:43;;;;;;;22.40;14.98;;;6.60;99.90;;;;;;5067551;28;20211;-87
2021/10/11 06:27:09;;;;;;;19.63;14.82;;;6.60;99.90;;;;;;5079305;28;20250;-85
2021/10/11 06:29:37;;;;;;;19.98;14.93;;;6.60;99.90;;;;;;5078237;28;20234;-87
2021/10/11 06:32:04;;;;;;;25.83;17.58;;;6.70;99.90;;;;;;5076999;28;20234;-87
2021/10/11 06:34:31;;;;;;;21.45;13.63;;;6.70;99.90;;;;;;5069903;28;20207;-87
2021/10/11 06:36:59;;;;;;;23.90;14.20;;;6.60;99.90;;;;;;5065476;28;20281;-86
2021/10/11 06:39:25;;;;;;;28.92;15.63;;;6.70;99.90;;;;;;5065135;28;20207;-88
2021/10/11 06:41:52;;;;;;;22.00;14.63;;;6.70;99.90;;;;;;5066131;28;20212;-87
2021/10/11 06:44:19;;;;;;;20.27;14.82;;;6.70;99.90;;;;;;5064890;28;20204;-87
2021/10/11 06:46:49;;;;;;;23.27;15.18;;;6.90;99.90;;;;;;5064222;28;20708;-89
2021/10/11 06:49:16;;;;;;;25.40;16.08;;;6.90;99.90;;;;;;5065439;28;20188;-86
2021/10/11 06:51:42;;;;;;;23.45;14.48;;;6.90;99.90;;;;;;5063274;28;20208;-87
2021/10/11 06:54:09;;;;;;;21.75;15.93;;;7.00;99.90;;;;;;5070191;28;20203;-88
2021/10/11 06:56:35;;;;;;;21.42;15.63;;;7.10;99.90;;;;;;5064010;28;20231;-88
2021/10/11 06:59:02;;;;;;;24.88;17.08;;;7.10;99.90;;;;;;5064742;28;20204;-88
2021/10/11 07:01:29;;;;;;;25.67;16.15;;;7.10;99.90;;;;;;5066316;28;20200;-87
2021/10/11 07:03:57;;;;;;;29.70;16.27;;;7.20;99.90;;;;;;5074986;28;20203;-86
2021/10/11 07:06:25;;;;;;;28.90;16.35;;;7.30;99.90;;;;;;5079264;28;20250;-84
2021/10/11 07:08:52;;;;;;;20.65;14.73;;;7.30;99.90;;;;;;5074391;28;20226;-86
2021/10/11 07:11:19;;;;;;;20.13;15.18;;;7.30;99.90;;;;;;5065544;28;20204;-87
2021/10/11 07:13:47;;;;;;;28.52;16.80;;;7.40;99.90;;;;;;5068322;28;20207;-86
2021/10/11 07:16:13;;;;;;;28.60;18.50;;;7.30;99.90;;;;;;5065889;28;20224;-86
2021/10/11 07:18:40;;;;;;;27.95;17.73;;;7.30;99.90;;;;;;5062681;28;20207;-87
2021/10/11 07:21:08;;;;;;;25.50;16.42;;;7.40;99.90;;;;;;5065165;28;20198;-86
2021/10/11 07:23:36;;;;;;;26.75;16.40;;;7.40;99.90;;;;;;5065024;28;20204;-88
2021/10/11 07:26:04;;;;;;;29.50;17.40;;;7.50;99.90;;;;;;5065524;28;20220;-86
2021/10/11 07:28:31;;;;;;;24.40;15.93;;;7.40;99.90;;;;;;5064630;28;20200;-86
2021/10/11 07:30:59;;;;;;;30.38;16.50;;;7.50;99.90;;;;;;5063606;28;20208;-87
2021/10/11 07:33:25;;;;;;;26.75;17.63;;;7.70;99.90;;;;;;5064104;28;20211;-87
2021/10/11 07:35:53;;;;;;;23.50;17.73;;;7.80;99.90;;;;;;5064220;28;20285;-86
2021/10/11 07:38:21;;;;;;;25.90;16.48;;;7.90;99.90;;;;;;5065046;28;20454;-88
2021/10/11 07:40:48;;;;;;;27.67;17.25;;;7.90;99.90;;;;;;5065455;28;20211;-87
2021/10/11 07:43:15;;;;;;;25.10;17.65;;;7.90;99.90;;;;;;5064755;28;20233;-87
2021/10/11 07:45:41;;;;;;;28.13;18.10;;;7.90;99.90;;;;;;5063591;28;20273;-86
2021/10/11 07:48:08;;;;;;;20.13;16.55;;;7.90;99.90;;;;;;5063131;28;20215;-87
2021/10/11 07:50:35;;;;;;;30.48;17.60;;;7.90;99.90;;;;;;5064141;28;20199;-86
2021/10/11 07:53:02;;;;;;;26.08;16.23;;;7.90;99.90;;;;;;5073087;28;20184;-84
2021/10/11 07:55:31;;;;;;;25.43;17.00;;;8.20;99.90;;;;;;5101226;22;20216;-89
2021/10/11 07:57:57;;;;;;;24.40;17.30;;;7.70;99.90;;;;;;5066789;28;20453;-90
2021/10/11 08:00:27;;;;;;;26.83;18.35;;;;;;;;;;5060413;28;20446;-90
2021/10/11 08:02:55;;;;;;;29.50;18.23;;;7.90;99.90;;;;;;5059658;28;20200;-90
2021/10/11 08:05:28;;;;;;;26.87;18.40;;;8.00;99.90;;;;;;5061125;28;20480;-90
2021/10/11 08:08:15;;;;;;;25.55;18.80;;;8.00;99.90;;;;;;5060062;28;20461;-91
2021/10/11 08:10:53;;;;;;;33.33;18.73;;;8.60;99.90;;;;;;5061274;28;20217;-89
2021/10/11 08:16:04;;;;;;;27.37;19.87;;;;;;;;;;5048696;28;20555;-90
2021/10/11 08:18:56;;;;;;;27.47;18.90;;;8.30;99.90;;;;;;5059066;28;20537;-91
2021/10/11 08:27:31;;;;;;;27.70;19.10;;;8.40;99.90;;;;;;5058797;28;21014;-90
2021/10/11 08:29:59;;;;;;;28.83;19.67;;;8.20;99.90;;;;;;5057812;28;20458;-90
2021/10/11 08:35:28;;;;;;;30.00;20.83;;;8.70;99.90;;;;;;5062021;28;20438;-90
2021/10/11 08:37:59;;;;;;;32.67;22.07;;;8.40;99.90;;;;;;5061736;28;20474;-91
2021/10/11 08:40:32;;;;;;;33.93;22.90;;;8.40;99.90;;;;;;5071216;28;20493;-91
2021/10/11 08:43:00;;;;;;;30.17;21.80;;;8.50;99.90;;;;;;5077304;28;20450;-91
2021/10/11 08:45:27;;;;;;;33.83;22.67;;;;;;;;;;5077489;28;20466;-92
2021/10/11 08:48:00;;;;;;;28.23;20.20;;;8.50;99.90;;;;;;5070269;28;20477;-90
2021/10/11 08:50:44;;;;;;;33.23;24.07;;;8.40;99.90;;;;;;5060134;28;20469;-90
2021/10/11 08:53:13;;;;;;;34.33;21.23;;;8.80;99.90;;;;;;5057773;28;20438;-90
2021/10/11 08:55:40;;;;;;;33.63;21.17;;;8.80;99.90;;;;;;5060324;28;20510;-91
2021/10/11 08:58:40;;;;;;;36.50;23.30;;;8.30;99.90;;;;;;5060026;28;20930;-90
2021/10/11 09:01:08;;;;;;;37.77;23.00;;;8.90;99.90;;;;;;5065441;28;20447;-91
2021/10/11 09:03:35;;;;;;;32.83;22.20;;;;;;;;;;5074174;28;20428;-90
2021/10/11 09:06:09;;;;;;;38.27;25.03;;;9.00;99.90;;;;;;5061236;28;20825;-90
2021/10/11 09:08:37;;;;;;;33.57;24.57;;;8.70;99.90;;;;;;5055891;28;20549;-89
2021/10/11 09:11:06;;;;;;;34.83;24.23;;;8.30;99.90;;;;;;5070975;28;20867;-89
2021/10/11 09:13:38;;;;;;;30.90;23.27;;;9.10;99.90;;;;;;5076190;28;20432;-88
2021/10/11 09:16:22;;;;;;;43.53;23.93;;;9.20;99.90;;;;;;5076175;28;20532;-92
2021/10/11 09:18:52;;;;;;;37.40;25.30;;;9.30;99.90;;;;;;5061271;28;20430;-91
2021/10/11 09:25:29;;;;;;;34.50;23.70;;;9.40;99.90;;;;;;4961118;28;20527;-89
2021/10/11 09:32:01;;;;;;;37.60;24.73;;;9.80;99.90;;;;;;4903281;29;21050;-89
2021/10/11 09:34:28;;;;;;;38.20;25.57;;;10.20;99.90;;;;;;4939497;28;20470;-84
2021/10/11 09:37:00;;;;;;;33.83;23.70;;;9.80;99.90;;;;;;5053151;28;20491;-85
2021/10/11 09:39:28;;;;;;;34.60;22.80;;;9.90;99.90;;;;;;5056256;28;20446;-84
2021/10/11 09:41:54;;;;;;;41.00;24.20;;;10.00;99.90;;;;;;5055534;28;20453;-84
2021/10/11 09:44:22;;;;;;;30.90;21.63;;;10.10;99.90;;;;;;5056202;28;20435;-85
2021/10/11 09:46:52;;;;;;;32.07;21.23;;;10.20;99.90;;;;;;5055950;28;20497;-85
2021/10/11 09:49:20;;;;;;;37.60;23.83;;;10.10;99.90;;;;;;5057269;28;20449;-85
2021/10/11 09:51:47;;;;;;;29.63;21.33;;;10.30;99.90;;;;;;5058178;28;20843;-85
2021/10/11 09:54:16;;;;;;;31.93;21.07;;;10.40;99.90;;;;;;5058747;28;20477;-85
2021/10/11 09:56:44;;;;;;;33.97;23.03;;;10.60;99.90;;;;;;5059703;28;20614;-86
2021/10/11 09:59:11;;;;;;;31.90;20.30;;;10.60;99.90;;;;;;5060984;28;20840;-85
2021/10/11 10:01:42;;;;;;;35.13;20.93;;;10.60;99.90;;;;;;5060831;28;20504;-85
2021/10/11 10:04:13;;;;;;;37.70;22.07;;;10.60;99.90;;;;;;5060136;28;20430;-85
2021/10/11 10:06:43;;;;;;;35.10;23.10;;;10.60;99.90;;;;;;5059654;28;20543;-85
2021/10/11 10:09:11;;;;;;;28.40;20.87;;;10.70;99.90;;;;;;5064965;28;20669;-84
2021/10/11 10:11:38;;;;;;;34.90;22.00;;;10.40;99.90;;;;;;5075318;28;20426;-84
2021/10/11 10:14:07;;;;;;;32.30;22.07;;;10.80;99.90;;;;;;5078827;28;20434;-85
2021/10/11 10:16:36;;;;;;;33.87;19.73;;;10.80;99.90;;;;;;5077985;28;20474;-84
2021/10/11 10:19:09;;;;;;;31.07;20.90;;;10.90;99.90;;;;;;5063867;28;20537;-85
2021/10/11 10:21:39;;;;;;;29.07;20.97;;;11.00;99.90;;;;;;5058611;28;20484;-85
2021/10/11 10:24:07;;;;;;;31.50;20.63;;;11.10;99.90;;;;;;5059990;28;20453;-84
2021/10/11 10:26:36;;;;;;;37.20;21.27;;;11.20;99.90;;;;;;5066179;28;20486;-84
2021/10/11 10:29:13;;;;;;;28.60;18.33;;;11.20;99.90;;;;;;5067736;28;20454;-84
2021/10/11 10:31:41;;;;;;;28.73;19.30;;;11.30;99.90;;;;;;5067625;28;20496;-85
2021/10/11 10:34:14;;;;;;;25.60;18.43;;;11.50;99.90;;;;;;5067639;28;20805;-85
2021/10/11 10:36:43;;;;;;;30.10;18.90;;;11.50;99.90;;;;;;5064338;28;20466;-85
2021/10/11 10:39:13;;;;;;;33.53;18.80;;;11.50;99.90;;;;;;5069637;28;20489;-84
2021/10/11 10:41:43;;;;;;;31.13;18.90;;;11.50;99.90;;;;;;5071692;28;20899;-84
2021/10/11 10:44:16;;;;;;;29.27;19.57;;;11.60;99.90;;;;;;5070621;28;20452;-85
2021/10/11 10:46:53;;;;;;;23.90;17.20;;;11.70;99.90;;;;;;5067063;28;20489;-85
2021/10/11 10:49:32;;;;;;;31.40;16.97;;;11.80;99.90;;;;;;5062218;28;20450;-84
2021/10/11 10:51:59;;;;;;;24.50;14.87;;;11.90;99.90;;;;;;5062210;28;20457;-84
2021/10/11 10:54:38;;;;;;;22.97;14.53;;;12.00;99.90;;;;;;5063546;28;20520;-87
2021/10/11 10:57:07;;;;;;;20.60;14.53;;;12.10;99.90;;;;;;5060819;28;20478;-86
2021/10/11 10:59:33;;;;;;;25.60;15.27;;;12.20;99.90;;;;;;5061637;28;20508;-86
2021/10/11 11:02:05;;;;;;;26.80;14.53;;;12.30;99.90;;;;;;5063632;28;20507;-87
2021/10/11 11:04:32;;;;;;;17.57;14.30;;;12.30;99.90;;;;;;5063008;28;20446;-85
2021/10/11 11:07:01;;;;;;;20.57;13.53;;;12.30;99.90;;;;;;5063440;28;20602;-85
2021/10/11 11:09:43;;;;;;;22.10;14.07;;;12.40;99.90;;;;;;5067135;28;20450;-84
2021/10/11 11:12:10;;;;;;;20.17;13.60;;;12.40;99.90;;;;;;5079325;28;20415;-86
2021/10/11 11:14:37;;;;;;;16.47;12.43;;;12.40;99.90;;;;;;5078425;28;20439;-85
2021/10/11 11:17:07;;;;;;;21.37;13.30;;;12.50;99.90;;;;;;5071653;28;20990;-86
2021/10/11 11:19:38;;;;;;;20.77;11.90;;;12.60;99.90;;;;;;5061937;28;20473;-86
2021/10/11 11:22:05;;;;;;;17.40;11.13;;;12.60;99.90;;;;;;5063701;28;20457;-86
2021/10/11 11:24:33;;;;;;;17.87;10.43;;;12.70;99.90;;;;;;5064094;28;20504;-86
2021/10/11 11:27:04;;;;;;;17.20;11.80;;;12.70;99.90;;;;;;5062424;28;20482;-87
2021/10/11 11:29:37;;;;;;;14.60;10.03;;;12.80;99.90;;;;;;5059511;28;20452;-86
2021/10/11 11:32:04;;;;;;;15.80;11.80;;;12.80;99.90;;;;;;5060642;28;20445;-86
2021/10/11 11:34:31;;;;;;;17.13;11.63;;;13.00;99.90;;;;;;5075078;28;20506;-86
2021/10/11 11:36:58;;;;;;;17.93;11.20;;;13.10;99.90;;;;;;5064788;28;20484;-85
2021/10/11 11:39:27;;;;;;;14.93;10.07;;;13.20;99.90;;;;;;5069908;28;20442;-85
2021/10/11 11:41:55;;;;;;;14.27;10.20;;;12.40;99.90;;;;;;5069204;28;21007;-86
2021/10/11 11:44:24;;;;;;;20.33;10.50;;;12.90;99.90;;;;;;5076798;28;20567;-86
2021/10/11 11:47:02;;;;;;;19.30;11.00;;;12.90;99.90;;;;;;5074017;28;20537;-85
2021/10/11 11:49:29;;;;;;;18.67;9.97;;;13.20;99.90;;;;;;5070745;28;20446;-85
2021/10/11 11:52:10;;;;;;;13.43;10.20;;;13.00;99.90;;;;;;5069243;28;20504;-85
2021/10/11 11:54:38;;;;;;;14.30;11.43;;;13.00;99.90;;;;;;5065104;28;20828;-84
2021/10/11 11:57:05;;;;;;;14.20;9.63;;;13.00;99.90;;;;;;5063282;28;20894;-84
2021/10/11 11:59:38;;;;;;;15.60;8.40;;;13.00;99.90;;;;;;5066515;28;20450;-85
2021/10/11 12:02:06;;;;;;;14.10;9.13;;;13.10;99.90;;;;;;5062872;28;20419;-85
2021/10/11 12:04:33;;;;;;;11.90;8.00;;;13.30;99.90;;;;;;5061493;28;20484;-85
2021/10/11 12:07:04;;;;;;;15.00;8.17;;;13.30;99.90;;;;;;5058743;28;20485;-85
2021/10/11 12:09:31;;;;;;;15.30;7.97;;;13.40;99.90;;;;;;5060773;28;20523;-88
2021/10/11 12:12:04;;;;;;;14.83;7.93;;;13.50;99.90;;;;;;5060771;28;20936;-85
2021/10/11 12:14:31;;;;;;;15.23;6.93;;;13.60;99.90;;;;;;5058747;28;20544;-85
2021/10/11 12:17:04;;;;;;;11.83;6.47;;;13.60;99.90;;;;;;5057810;28;20474;-86
2021/10/11 12:19:32;;;;;;;13.63;6.50;;;13.60;99.90;;;;;;5059239;28;20442;-86
2021/10/11 12:21:59;;;;;;;11.70;6.97;;;13.60;99.90;;;;;;5060863;28;20567;-86
2021/10/11 12:24:31;;;;;;;13.80;5.83;;;13.60;99.90;;;;;;5068201;28;20504;-86
2021/10/11 12:27:00;;;;;;;12.17;5.73;;;13.70;99.90;;;;;;5060519;28;20462;-86
2021/10/11 12:29:29;;;;;;;11.33;5.00;;;13.80;99.90;;;;;;5059870;28;20454;-86
2021/10/11 12:31:58;;;;;;;8.90;4.73;;;13.90;99.90;;;;;;5063266;28;20608;-86
2021/10/11 12:34:31;;;;;;;6.80;4.07;;;14.10;99.90;;;;;;5060961;28;20476;-86
2021/10/11 12:37:08;;;;;;;9.17;4.77;;;14.20;99.90;;;;;;5062833;28;20462;-86
2021/10/11 12:39:37;;;;;;;7.23;4.70;;;14.20;99.90;;;;;;5064012;28;20434;-85
2021/10/11 12:42:07;;;;;;;8.93;5.63;;;14.20;99.90;;;;;;5065446;28;20446;-85
2021/10/11 12:44:36;;;;;;;7.47;4.30;;;14.20;99.90;;;;;;5065093;28;20476;-85
2021/10/11 12:47:06;;;;;;;7.70;4.63;;;14.10;99.90;;;;;;5063568;28;20470;-85
2021/10/11 12:49:36;;;;;;;14.40;6.87;;;14.10;99.90;;;;;;5061977;28;20431;-85
2021/10/11 12:52:03;;;;;;;6.30;4.27;;;14.10;99.90;;;;;;5063129;28;20454;-83
2021/10/11 12:54:33;;;;;;;9.80;4.57;;;14.00;99.90;;;;;;5060074;28;20499;-85
2021/10/11 12:57:02;;;;;;;9.83;5.37;;;14.00;99.90;;;;;;5059658;28;20927;-84
2021/10/11 12:59:29;;;;;;;9.13;4.77;;;13.90;99.90;;;;;;5061553;28;20952;-85
2021/10/11 13:01:57;;;;;;;7.73;4.67;;;13.70;99.90;;;;;;5060628;28;20450;-85
2021/10/11 13:04:25;;;;;;;8.10;4.80;;;13.70;99.90;;;;;;5062402;28;20450;-86